ENEV

Harstad / Narvik , Evenes Airport

Evenes, Norway
METAR ENEV 201250Z 22008KT 190V260 9999 -RA BKN028 BKN038 07/05 Q1013 RMK WIND 1400FT 23018KT
Observed Flight Rules
Oct-20 @ 12:50 UTC (22 minutes ago) Marginal Visual Flight Rules
Wind Visibility Clouds Conditions
220° at 8 knots 10,000+ meters
  • Broken at 2,800' AGL
  • Broken at 3,800' AGL
  • Light Rain
Temperatures Readings
Current 7°C / 45°F
Dewpoint 5°C / 41°F
Humidity 87%
Altimeter 29.91" Hg
Pressure 1013 hPa
Elevation 26
METAR ENEV 201250Z 22008KT 190V260 9999 -RA BKN028 BKN038 07/05 Q1013 RMK WIND 1400FT 23018KT
Observed Flight Rules
Oct-20 @ 12:50 UTC
(22 minutes ago)
MVFR
Wind Visibility
220° at 8 knots 10,000+ meters
Clouds
  • Broken at 2,800' AGL
  • Broken at 3,800' AGL
Conditions
  • Light Rain
Temperature Dewpoint
7°C / 45°F 5°C / 41°F
Humidity Altimeter Pressure
87% 29.91" Hg 1013 hPa